Time;durP1;ratioP1;P1;durP2;ratioP2;P2;SDS_P1;SDS_P2;PMS_P1;PMS_P2;Temp;Humidity;BMP_temperature;BMP_pressure;BME280_temperature;BME280_humidity;BME280_pressure;Samples;Min_cycle;Max_cycle;Signal;HPM_P1;HPM_P2
2021/10/26 00:02:24;;;;;;;23.75;19.75;;;13.40;85.90;;;;;;5043181;28;20053;-71
2021/10/26 00:04:50;;;;;;;26.33;20.05;;;13.40;85.90;;;;;;5047374;28;20196;-72
2021/10/26 00:07:16;;;;;;;25.40;19.40;;;13.40;85.90;;;;;;5041189;28;20026;-72
2021/10/26 00:09:41;;;;;;;22.45;19.05;;;13.40;85.90;;;;;;5050266;28;20065;-72
2021/10/26 00:12:08;;;;;;;22.27;17.35;;;13.40;85.90;;;;;;5045670;28;20025;-72
2021/10/26 00:14:34;;;;;;;26.35;21.65;;;13.40;85.90;;;;;;5047061;28;20040;-72
2021/10/26 00:17:00;;;;;;;25.98;19.77;;;13.30;85.90;;;;;;5043798;28;20025;-72
2021/10/26 00:19:26;;;;;;;28.92;20.92;;;13.30;86.00;;;;;;5049212;28;20036;-71
2021/10/26 00:21:52;;;;;;;26.45;21.00;;;13.30;86.10;;;;;;5048876;28;20025;-72
2021/10/26 00:24:18;;;;;;;25.23;19.92;;;13.40;86.10;;;;;;5050274;28;20163;-71
2021/10/26 00:26:44;;;;;;;32.30;20.25;;;13.40;86.00;;;;;;5050620;28;20043;-71
2021/10/26 00:29:10;;;;;;;21.58;19.23;;;13.40;86.00;;;;;;5049910;28;20549;-72
2021/10/26 00:31:35;;;;;;;26.67;20.92;;;13.40;86.00;;;;;;5049203;28;20041;-72
2021/10/26 00:34:02;;;;;;;23.02;19.20;;;13.40;86.10;;;;;;5050147;28;20021;-72
2021/10/26 00:36:28;;;;;;;27.42;20.77;;;13.40;86.10;;;;;;5050909;28;20037;-71
2021/10/26 00:38:54;;;;;;;24.73;19.83;;;13.30;86.10;;;;;;5082007;28;20480;-71
2021/10/26 00:41:20;;;;;;;25.60;20.55;;;13.40;86.70;;;;;;5079891;28;20047;-72
2021/10/26 00:43:45;;;;;;;27.30;20.50;;;13.40;86.10;;;;;;5049916;28;20067;-71
2021/10/26 00:46:11;;;;;;;22.08;19.15;;;13.40;86.60;;;;;;5082645;28;20045;-71
2021/10/26 00:48:38;;;;;;;24.40;19.65;;;13.40;86.00;;;;;;5049387;28;20024;-72
2021/10/26 00:51:07;;;;;;;28.33;20.25;;;13.40;86.00;;;;;;5081999;28;20547;-71
2021/10/26 00:53:33;;;;;;;25.73;19.88;;;13.40;86.00;;;;;;5049772;28;20028;-72
2021/10/26 00:55:58;;;;;;;26.13;20.88;;;13.40;86.00;;;;;;5048230;28;20049;-72
2021/10/26 00:58:24;;;;;;;28.52;21.05;;;13.40;85.90;;;;;;5050038;28;20096;-71
2021/10/26 01:00:50;;;;;;;26.10;19.73;;;13.40;86.00;;;;;;5046801;28;20336;-72
2021/10/26 01:03:16;;;;;;;23.65;20.27;;;13.40;86.00;;;;;;5040128;28;20053;-71
2021/10/26 01:05:42;;;;;;;26.17;20.73;;;13.40;86.10;;;;;;5039895;28;20037;-72
2021/10/26 01:08:08;;;;;;;27.05;23.08;;;13.40;86.10;;;;;;5047148;28;20325;-70
2021/10/26 01:10:34;;;;;;;28.98;23.67;;;13.40;86.20;;;;;;5079237;28;20083;-71
2021/10/26 01:13:03;;;;;;;27.23;21.77;;;13.40;86.20;;;;;;5045896;28;20385;-71
2021/10/26 01:15:29;;;;;;;24.40;21.10;;;13.30;86.20;;;;;;5076065;28;20488;-71
2021/10/26 01:17:55;;;;;;;28.40;22.77;;;13.40;86.20;;;;;;5039466;28;20063;-71
2021/10/26 01:20:20;;;;;;;32.65;24.35;;;13.40;86.20;;;;;;5054259;28;20477;-71
2021/10/26 01:22:46;;;;;;;26.45;22.33;;;13.40;86.20;;;;;;5057197;28;20376;-70
2021/10/26 01:28:37;;;;;;;24.95;21.13;;;13.40;86.30;;;;;;5041944;23;20104;-72
2021/10/26 01:31:03;;;;;;;33.70;23.00;;;13.40;86.20;;;;;;5027078;23;20050;-72
2021/10/26 01:33:29;;;;;;;34.63;25.80;;;13.30;86.30;;;;;;5028368;28;20079;-70
2021/10/26 01:35:55;;;;;;;30.77;24.27;;;13.30;86.40;;;;;;5027452;28;20388;-72
2021/10/26 01:38:25;;;;;;;33.13;24.67;;;13.30;86.40;;;;;;5030257;28;20360;-71
2021/10/26 01:40:51;;;;;;;31.20;25.20;;;13.30;86.50;;;;;;5027775;28;20386;-73
2021/10/26 01:43:18;;;;;;;29.40;22.88;;;13.40;86.50;;;;;;5030071;28;20040;-73
2021/10/26 01:45:44;;;;;;;32.50;23.90;;;13.30;86.50;;;;;;5029512;28;20030;-72
2021/10/26 01:48:10;;;;;;;29.85;24.63;;;13.30;86.50;;;;;;5029343;28;20323;-70
2021/10/26 01:50:35;;;;;;;33.65;24.17;;;13.30;86.60;;;;;;5027236;28;20423;-71
2021/10/26 01:53:01;;;;;;;31.55;26.27;;;13.30;86.60;;;;;;5029799;28;20061;-70
2021/10/26 01:55:27;;;;;;;42.08;29.38;;;13.30;86.70;;;;;;5028243;28;20040;-71
2021/10/26 01:57:52;;;;;;;34.63;27.58;;;13.30;86.90;;;;;;5028550;28;20033;-72
2021/10/26 02:00:20;;;;;;;34.33;26.17;;;13.20;86.90;;;;;;5029039;28;20404;-72
2021/10/26 02:02:47;;;;;;;37.35;27.98;;;13.30;87.00;;;;;;5027665;28;20435;-72
2021/10/26 02:05:14;;;;;;;33.70;27.08;;;13.20;87.00;;;;;;5028615;28;20209;-72
2021/10/26 02:07:40;;;;;;;32.53;24.77;;;13.20;87.10;;;;;;5028157;28;20376;-72
2021/10/26 02:10:06;;;;;;;36.70;30.42;;;13.20;87.20;;;;;;5027568;28;20040;-71
2021/10/26 02:12:33;;;;;;;34.65;27.00;;;13.20;87.20;;;;;;5029503;28;20025;-71
2021/10/26 02:14:58;;;;;;;34.65;27.83;;;13.20;87.20;;;;;;5029267;28;20388;-71
2021/10/26 02:17:24;;;;;;;38.58;28.55;;;13.20;87.30;;;;;;5028118;28;20033;-72
2021/10/26 02:19:50;;;;;;;38.50;30.10;;;13.20;87.20;;;;;;5027218;28;20450;-72
2021/10/26 02:22:15;;;;;;;35.55;28.85;;;13.20;87.30;;;;;;5029426;28;20084;-72
2021/10/26 02:24:42;;;;;;;37.80;29.60;;;13.20;87.30;;;;;;5027600;28;20087;-71
2021/10/26 02:27:07;;;;;;;36.13;29.77;;;13.20;87.30;;;;;;5029503;28;20307;-71
2021/10/26 02:29:33;;;;;;;35.58;26.17;;;13.20;87.30;;;;;;5027617;28;20030;-72
2021/10/26 02:31:59;;;;;;;38.30;29.42;;;13.20;87.30;;;;;;5027869;28;20056;-72
2021/10/26 02:34:25;;;;;;;36.58;30.98;;;13.20;87.30;;;;;;5028606;28;20022;-72
2021/10/26 02:36:51;;;;;;;34.85;27.83;;;13.20;87.30;;;;;;5029750;28;20393;-72
2021/10/26 02:39:17;;;;;;;39.17;28.73;;;13.20;87.90;;;;;;5029046;28;20084;-72
2021/10/26 02:41:43;;;;;;;34.50;27.80;;;13.20;87.30;;;;;;5007491;28;20132;-72
2021/10/26 02:44:09;;;;;;;37.47;29.45;;;13.20;87.40;;;;;;5022715;28;20038;-71
2021/10/26 02:46:35;;;;;;;40.72;29.17;;;13.20;87.30;;;;;;5031510;28;20053;-71
2021/10/26 02:49:00;;;;;;;35.03;28.45;;;13.20;87.40;;;;;;5032635;28;20088;-71
2021/10/26 02:51:26;;;;;;;38.50;29.95;;;13.20;87.30;;;;;;5031694;28;20083;-71
2021/10/26 02:53:52;;;;;;;42.90;31.05;;;13.30;87.30;;;;;;5033032;28;20038;-71
2021/10/26 02:56:18;;;;;;;35.80;27.75;;;13.30;87.30;;;;;;5031879;28;20064;-72
2021/10/26 02:58:44;;;;;;;47.95;30.42;;;13.30;87.30;;;;;;5014800;28;20038;-71
2021/10/26 03:01:10;;;;;;;35.30;27.77;;;13.30;87.30;;;;;;5031443;28;20029;-71
2021/10/26 03:03:37;;;;;;;36.80;29.60;;;13.20;87.30;;;;;;5032603;28;20030;-72
2021/10/26 03:06:04;;;;;;;39.47;27.92;;;13.20;87.40;;;;;;5020937;28;20041;-72
2021/10/26 03:08:30;;;;;;;41.72;28.73;;;13.20;87.40;;;;;;5032602;28;20041;-71
2021/10/26 03:10:56;;;;;;;39.83;28.30;;;13.20;87.40;;;;;;5032117;28;20026;-71
2021/10/26 03:13:22;;;;;;;37.00;29.33;;;13.20;87.40;;;;;;5032684;28;20025;-72
2021/10/26 03:15:47;;;;;;;39.13;29.90;;;13.20;87.50;;;;;;5032685;28;20034;-72
2021/10/26 03:18:13;;;;;;;37.70;28.50;;;13.20;87.50;;;;;;5029672;28;20030;-72
2021/10/26 03:20:40;;;;;;;35.55;27.77;;;13.20;87.50;;;;;;5029096;28;20032;-72
2021/10/26 03:23:06;;;;;;;44.78;30.00;;;13.20;87.50;;;;;;5030319;28;20032;-72
2021/10/26 03:25:32;;;;;;;36.15;29.15;;;13.20;87.50;;;;;;5030438;28;20022;-71
2021/10/26 03:27:58;;;;;;;37.63;29.85;;;13.20;87.60;;;;;;5013100;28;20026;-72
2021/10/26 03:30:24;;;;;;;37.20;28.38;;;13.20;87.50;;;;;;5031187;28;20041;-71
2021/10/26 03:32:50;;;;;;;32.47;25.77;;;13.20;87.50;;;;;;5030670;28;20029;-71
2021/10/26 03:35:16;;;;;;;45.72;32.15;;;13.20;87.40;;;;;;5029531;28;20056;-71
2021/10/26 03:37:41;;;;;;;37.78;29.77;;;13.30;87.40;;;;;;5028940;28;20184;-71
2021/10/26 03:40:10;;;;;;;34.13;27.52;;;13.30;87.30;;;;;;5031268;28;20104;-71
2021/10/26 03:42:35;;;;;;;35.22;27.52;;;13.30;87.20;;;;;;5030960;28;20179;-72
2021/10/26 03:45:01;;;;;;;41.72;31.55;;;13.20;87.20;;;;;;5031205;28;20112;-71
2021/10/26 03:47:27;;;;;;;42.05;30.75;;;13.20;87.10;;;;;;5030273;28;20451;-71
2021/10/26 03:49:53;;;;;;;40.97;32.38;;;13.20;87.20;;;;;;5029144;28;20041;-72
2021/10/26 03:52:18;;;;;;;37.58;30.20;;;13.20;87.20;;;;;;5029281;28;20030;-71
2021/10/26 03:54:44;;;;;;;37.53;30.95;;;13.20;87.20;;;;;;5029314;28;20049;-72
2021/10/26 03:57:12;;;;;;;39.75;30.67;;;13.10;87.30;;;;;;5031774;28;20051;-71
2021/10/26 03:59:39;;;;;;;37.47;30.42;;;13.20;87.30;;;;;;5031311;28;20797;-71
2021/10/26 04:02:18;;;;;;;35.75;28.30;;;13.10;87.20;;;;;;5031572;28;20044;-72
2021/10/26 04:04:44;;;;;;;33.33;29.27;;;13.10;87.30;;;;;;5028769;28;20044;-72
2021/10/26 04:07:10;;;;;;;35.90;29.00;;;13.10;87.20;;;;;;5028085;28;20018;-71
2021/10/26 04:12:24;;;;;;;42.53;33.63;;;13.10;87.10;;;;;;5030052;28;20447;-72
2021/10/26 04:14:55;;;;;;;39.42;31.85;;;13.10;87.00;;;;;;5013211;28;20044;-72
2021/10/26 04:17:25;;;;;;;47.33;34.50;;;13.10;87.10;;;;;;5030195;28;20033;-71
2021/10/26 04:19:54;;;;;;;43.17;33.13;;;13.00;87.00;;;;;;5029723;28;20030;-72
2021/10/26 04:22:21;;;;;;;43.03;34.70;;;13.00;87.00;;;;;;5031431;28;20021;-72
2021/10/26 04:24:48;;;;;;;44.10;31.52;;;13.00;87.10;;;;;;5030795;28;20037;-72
2021/10/26 04:27:14;;;;;;;43.83;33.38;;;13.00;87.20;;;;;;5029658;28;20044;-72
2021/10/26 04:29:41;;;;;;;48.20;34.72;;;12.90;87.20;;;;;;5030392;28;20080;-72
2021/10/26 04:32:09;;;;;;;45.05;34.00;;;12.90;87.10;;;;;;5029596;28;20559;-72
2021/10/26 04:34:35;;;;;;;38.10;29.45;;;12.90;87.20;;;;;;5030213;28;20030;-72
2021/10/26 04:37:01;;;;;;;38.15;30.65;;;12.90;87.20;;;;;;5030934;28;20104;-72
2021/10/26 04:39:26;;;;;;;39.33;30.45;;;12.90;87.30;;;;;;5012804;28;20175;-72
2021/10/26 04:41:53;;;;;;;47.10;33.63;;;12.90;87.30;;;;;;5030541;28;20075;-73
2021/10/26 04:44:18;;;;;;;41.70;31.75;;;12.90;87.30;;;;;;5029319;28;20052;-72
2021/10/26 04:46:44;;;;;;;47.17;33.22;;;12.90;87.30;;;;;;5010007;28;20026;-71
2021/10/26 04:49:10;;;;;;;44.28;32.05;;;12.90;87.40;;;;;;5026650;28;20032;-71
2021/10/26 04:51:36;;;;;;;44.15;30.85;;;12.90;87.40;;;;;;5030566;28;20059;-71
2021/10/26 04:54:01;;;;;;;39.22;28.52;;;12.90;87.50;;;;;;5029098;28;20037;-71
2021/10/26 04:56:27;;;;;;;42.63;29.80;;;12.90;87.60;;;;;;5031186;28;20445;-71
2021/10/26 04:58:52;;;;;;;44.05;31.95;;;12.90;87.50;;;;;;5029282;28;20042;-72
2021/10/26 05:01:18;;;;;;;45.15;31.88;;;12.90;87.50;;;;;;5025036;28;20484;-71
2021/10/26 05:03:46;;;;;;;44.28;30.77;;;12.80;87.50;;;;;;5027668;28;20037;-71
2021/10/26 05:06:12;;;;;;;43.95;30.42;;;12.80;87.50;;;;;;5028537;28;20031;-71
2021/10/26 05:08:37;;;;;;;41.72;31.58;;;12.80;87.50;;;;;;5021046;28;20021;-72
2021/10/26 05:11:03;;;;;;;48.15;31.42;;;12.80;87.50;;;;;;5029541;28;20049;-71
2021/10/26 05:13:31;;;;;;;47.72;32.97;;;12.90;87.60;;;;;;5029870;28;20034;-71
2021/10/26 05:15:58;;;;;;;48.33;33.28;;;12.80;87.40;;;;;;5030256;28;20037;-72
2021/10/26 05:18:24;;;;;;;48.88;32.90;;;12.80;87.40;;;;;;5029150;28;20041;-71
2021/10/26 05:20:51;;;;;;;44.60;30.70;;;12.80;87.40;;;;;;5029545;28;20025;-72
2021/10/26 05:23:18;;;;;;;45.10;30.35;;;12.80;87.40;;;;;;5029551;28;20034;-72
2021/10/26 05:25:48;;;;;;;43.25;31.23;;;12.80;87.30;;;;;;5029796;28;20124;-71
2021/10/26 05:28:13;;;;;;;44.72;30.83;;;12.80;87.40;;;;;;5026724;28;20021;-72
2021/10/26 05:30:39;;;;;;;47.35;31.23;;;12.80;87.40;;;;;;5028758;28;20037;-71
2021/10/26 05:33:05;;;;;;;48.92;33.72;;;12.80;87.20;;;;;;5027732;28;20037;-71
2021/10/26 05:35:31;;;;;;;54.08;33.38;;;12.80;87.20;;;;;;5028791;28;20021;-72
2021/10/26 05:37:56;;;;;;;40.65;29.33;;;12.80;87.20;;;;;;5029387;28;20393;-71
2021/10/26 05:40:22;;;;;;;39.88;29.90;;;12.80;87.30;;;;;;5026937;28;20053;-72
2021/10/26 05:42:48;;;;;;;44.70;33.10;;;12.80;87.30;;;;;;5026669;28;20033;-72
2021/10/26 05:45:13;;;;;;;41.97;30.58;;;12.80;87.20;;;;;;5027938;28;20090;-71
2021/10/26 05:47:39;;;;;;;42.58;32.85;;;12.80;87.20;;;;;;5029089;28;20033;-72
2021/10/26 05:50:06;;;;;;;45.33;31.00;;;12.80;87.30;;;;;;5027848;28;20041;-71
2021/10/26 05:52:31;;;;;;;46.13;31.23;;;12.80;87.30;;;;;;5026562;28;20039;-71
2021/10/26 05:54:57;;;;;;;49.10;34.83;;;12.80;87.20;;;;;;5027556;28;20025;-72
2021/10/26 05:57:23;;;;;;;45.88;33.75;;;12.80;87.10;;;;;;5019981;28;20033;-72
2021/10/26 05:59:48;;;;;;;42.88;31.50;;;12.80;87.20;;;;;;4991917;28;20053;-71
2021/10/26 06:02:14;;;;;;;51.22;35.55;;;12.80;87.30;;;;;;5033931;28;20034;-70
2021/10/26 06:04:40;;;;;;;46.92;34.17;;;12.80;87.00;;;;;;5035960;28;20048;-70
2021/10/26 06:07:06;;;;;;;45.85;33.80;;;12.80;87.10;;;;;;5030302;28;20022;-70
2021/10/26 06:09:34;;;;;;;48.03;32.47;;;12.80;87.10;;;;;;5037795;28;20476;-71
2021/10/26 06:12:01;;;;;;;49.63;34.50;;;12.80;87.10;;;;;;5031214;28;20428;-70
2021/10/26 06:14:27;;;;;;;49.90;34.20;;;12.80;87.10;;;;;;5033994;28;20372;-71
2021/10/26 06:17:00;;;;;;;51.90;33.20;;;12.80;87.10;;;;;;5036686;28;20038;-71
2021/10/26 06:19:26;;;;;;;54.25;34.88;;;12.80;87.00;;;;;;5027964;28;20069;-71
2021/10/26 06:21:51;;;;;;;43.58;30.00;;;12.80;87.00;;;;;;5036958;28;20056;-71
2021/10/26 06:24:17;;;;;;;48.45;33.42;;;12.80;87.10;;;;;;5037796;28;20030;-72
2021/10/26 06:26:43;;;;;;;49.45;32.28;;;12.70;87.10;;;;;;5034449;28;20048;-71
2021/10/26 06:29:08;;;;;;;53.83;35.58;;;12.70;87.20;;;;;;5034039;28;20083;-72
2021/10/26 06:31:34;;;;;;;52.83;34.83;;;12.70;87.30;;;;;;5018994;28;20496;-71
2021/10/26 06:34:00;;;;;;;51.25;34.90;;;12.70;87.50;;;;;;5062362;28;20081;-73
2021/10/26 06:36:26;;;;;;;47.65;32.92;;;12.60;87.50;;;;;;5042781;28;20558;-72
2021/10/26 06:38:52;;;;;;;52.65;34.63;;;12.60;87.60;;;;;;5038554;28;20269;-71
2021/10/26 06:41:19;;;;;;;52.65;34.25;;;12.60;87.70;;;;;;5032100;28;20029;-71
2021/10/26 06:43:44;;;;;;;47.05;31.48;;;12.60;87.70;;;;;;5033108;28;20528;-71
2021/10/26 06:46:10;;;;;;;51.53;33.90;;;12.60;87.70;;;;;;5038492;28;20167;-72
2021/10/26 06:48:36;;;;;;;54.05;35.00;;;12.60;87.80;;;;;;5034397;28;20028;-72
2021/10/26 06:51:01;;;;;;;56.17;34.63;;;12.60;87.90;;;;;;5041176;28;20458;-72
2021/10/26 06:53:27;;;;;;;54.90;35.63;;;12.60;88.00;;;;;;5041048;28;20530;-72
2021/10/26 06:55:57;;;;;;;58.85;35.67;;;12.60;88.00;;;;;;5036582;28;20480;-72
2021/10/26 06:58:22;;;;;;;65.00;37.85;;;12.60;88.20;;;;;;5053975;28;20041;-72
2021/10/26 07:00:48;;;;;;;53.88;34.38;;;12.60;88.20;;;;;;5030506;28;20033;-72
2021/10/26 07:03:14;;;;;;;53.33;34.42;;;12.60;88.20;;;;;;5055826;28;20021;-71
2021/10/26 07:05:40;;;;;;;50.97;31.80;;;12.60;88.30;;;;;;5033222;28;20057;-72
2021/10/26 07:08:06;;;;;;;52.53;34.78;;;12.60;88.30;;;;;;5053296;28;20028;-71
2021/10/26 07:10:32;;;;;;;59.85;35.30;;;12.60;88.30;;;;;;5027005;28;20407;-71
2021/10/26 07:12:58;;;;;;;56.80;35.72;;;12.60;88.40;;;;;;5037431;28;20022;-71
2021/10/26 07:15:28;;;;;;;55.53;33.80;;;12.60;88.40;;;;;;5025513;28;20029;-71
2021/10/26 07:17:53;;;;;;;49.47;31.25;;;12.70;88.40;;;;;;5032117;28;20488;-71
2021/10/26 07:20:19;;;;;;;47.78;32.17;;;12.60;88.20;;;;;;5033011;28;20041;-70
2021/10/26 07:22:53;;;;;;;49.47;32.00;;;12.70;88.30;;;;;;5035254;28;20036;-71
2021/10/26 07:25:20;;;;;;;45.90;31.20;;;12.70;88.30;;;;;;5047200;28;20107;-71
2021/10/26 07:27:47;;;;;;;49.83;32.88;;;12.70;88.30;;;;;;5036619;28;20518;-71
2021/10/26 07:30:13;;;;;;;51.90;33.17;;;12.70;88.30;;;;;;5035876;28;20049;-71
2021/10/26 07:32:41;;;;;;;54.55;33.70;;;12.70;88.20;;;;;;5027820;28;20025;-72
2021/10/26 07:35:07;;;;;;;49.13;31.45;;;12.80;88.20;;;;;;5027813;28;20060;-71
2021/10/26 07:37:37;;;;;;;57.35;35.05;;;12.70;87.90;;;;;;5030386;28;20073;-71
2021/10/26 07:40:03;;;;;;;51.15;31.55;;;12.70;88.10;;;;;;5025654;28;20061;-70
2021/10/26 07:42:29;;;;;;;40.22;28.63;;;12.70;88.10;;;;;;5022597;28;20030;-71
2021/10/26 07:44:56;;;;;;;48.30;32.35;;;12.70;88.10;;;;;;5007705;28;20022;-71
2021/10/26 07:47:23;;;;;;;54.22;32.78;;;12.70;88.10;;;;;;5028837;28;20080;-71
2021/10/26 07:49:50;;;;;;;53.15;34.05;;;12.80;88.20;;;;;;5027619;28;20026;-71
2021/10/26 07:52:17;;;;;;;55.10;34.05;;;12.80;88.20;;;;;;5030007;28;20033;-70
2021/10/26 07:54:52;;;;;;;64.88;35.42;;;12.80;88.20;;;;;;5025486;28;20128;-72
2021/10/26 07:57:22;;;;;;;61.47;35.85;;;12.80;88.10;;;;;;5028187;28;20472;-71
2021/10/26 07:59:48;;;;;;;59.17;33.70;;;12.80;88.20;;;;;;5027475;28;20033;-71
2021/10/26 08:02:14;;;;;;;59.05;34.45;;;12.80;88.20;;;;;;5029625;28;20497;-71
2021/10/26 08:04:42;;;;;;;55.92;31.38;;;12.70;88.10;;;;;;5028183;28;20504;-71
2021/10/26 08:07:08;;;;;;;49.88;30.63;;;12.80;88.20;;;;;;5030474;28;20531;-71
2021/10/26 08:09:34;;;;;;;53.13;31.65;;;12.80;88.30;;;;;;5005582;28;20034;-71
2021/10/26 08:12:00;;;;;;;42.40;26.50;;;12.80;88.30;;;;;;5029246;28;20041;-72
2021/10/26 08:14:26;;;;;;;54.10;32.65;;;12.80;88.20;;;;;;5025958;28;20043;-71
2021/10/26 08:16:52;;;;;;;53.92;29.20;;;12.80;87.80;;;;;;5029589;28;20073;-72
2021/10/26 08:19:18;;;;;;;51.08;30.40;;;12.80;87.90;;;;;;5025927;28;20421;-72
2021/10/26 08:21:43;;;;;;;49.00;28.52;;;12.80;87.80;;;;;;5026582;28;20451;-72
2021/10/26 08:24:09;;;;;;;49.20;30.17;;;12.90;87.80;;;;;;5023273;28;20057;-72
2021/10/26 08:26:45;;;;;;;55.28;30.98;;;12.90;87.70;;;;;;5018183;28;20338;-71
2021/10/26 08:29:29;;;;;;;48.92;29.92;;;12.90;87.60;;;;;;5026991;28;20024;-71
2021/10/26 08:37:12;;;;;;;48.78;28.27;;;13.00;87.30;;;;;;5023334;28;20426;-71
2021/10/26 08:39:41;;;;;;;43.58;27.65;;;13.10;87.10;;;;;;5028041;28;20055;-72
2021/10/26 08:42:11;;;;;;;40.13;26.48;;;13.10;86.90;;;;;;5029586;28;20104;-72
2021/10/26 08:44:37;;;;;;;38.58;26.88;;;13.10;87.50;;;;;;5025662;28;20507;-71
2021/10/26 08:47:03;;;;;;;44.63;26.17;;;13.10;86.90;;;;;;5026925;28;20033;-72
2021/10/26 08:49:29;;;;;;;47.17;27.98;;;13.10;86.80;;;;;;5029211;28;20461;-73
2021/10/26 08:51:55;;;;;;;40.15;25.50;;;13.20;86.30;;;;;;5030189;28;20041;-73
2021/10/26 08:54:22;;;;;;;40.47;26.85;;;13.20;86.50;;;;;;5027463;28;20030;-71
2021/10/26 08:56:48;;;;;;;47.58;27.80;;;13.20;86.60;;;;;;4999894;28;20041;-72
2021/10/26 08:59:19;;;;;;;38.65;25.38;;;13.20;86.30;;;;;;5020488;28;20124;-72
2021/10/26 09:01:55;;;;;;;40.92;25.88;;;13.20;86.20;;;;;;5028434;28;20116;-73
2021/10/26 09:04:21;;;;;;;41.03;25.50;;;13.20;86.20;;;;;;5026849;28;20026;-72
2021/10/26 09:06:53;;;;;;;36.70;23.67;;;13.20;86.00;;;;;;5021667;28;20105;-72
2021/10/26 09:09:20;;;;;;;40.25;23.88;;;13.20;86.10;;;;;;5017848;28;20861;-72
2021/10/26 09:17:26;;;;;;;36.38;24.52;;;13.20;86.00;;;;;;5024795;28;20048;-72
2021/10/26 09:19:55;;;;;;;36.60;23.23;;;13.20;85.90;;;;;;5023398;28;20041;-72
2021/10/26 09:22:22;;;;;;;42.67;24.58;;;13.20;86.00;;;;;;5024076;28;20036;-73
2021/10/26 09:25:03;;;;;;;42.05;25.20;;;13.30;86.10;;;;;;5025598;28;20037;-72
2021/10/26 09:27:30;;;;;;;39.38;26.08;;;13.30;85.90;;;;;;5029461;28;20041;-73
2021/10/26 09:30:16;;;;;;;40.58;24.90;;;13.20;85.70;;;;;;5013724;28;20048;-71
2021/10/26 09:32:48;;;;;;;46.45;25.73;;;13.30;86.00;;;;;;5024485;28;20099;-73
2021/10/26 09:35:19;;;;;;;42.55;27.35;;;13.30;85.80;;;;;;5017153;28;20441;-72
2021/10/26 09:37:50;;;;;;;48.35;29.00;;;13.40;85.80;;;;;;5028758;28;20061;-72
2021/10/26 09:40:16;;;;;;;46.17;28.98;;;13.40;85.40;;;;;;5026592;28;20361;-71
2021/10/26 09:42:50;;;;;;;41.47;27.35;;;13.50;85.40;;;;;;5029141;28;20040;-73
2021/10/26 09:45:24;;;;;;;41.20;27.70;;;13.60;85.30;;;;;;5026735;28;20025;-73
2021/10/26 09:47:53;;;;;;;38.72;26.00;;;13.60;85.20;;;;;;5027331;28;20033;-72
2021/10/26 09:50:19;;;;;;;43.72;25.90;;;13.60;84.70;;;;;;5027649;28;20032;-70
2021/10/26 09:52:48;;;;;;;37.13;23.92;;;13.70;84.00;;;;;;5028073;28;20033;-72
2021/10/26 09:55:23;;;;;;;34.80;22.63;;;13.60;84.10;;;;;;5027818;28;20194;-71
2021/10/26 09:57:57;;;;;;;34.80;23.08;;;13.60;84.00;;;;;;5020156;28;20034;-71
2021/10/26 10:00:29;;;;;;;37.40;24.00;;;13.60;84.20;;;;;;5027019;28;20036;-71
2021/10/26 10:03:11;;;;;;;37.75;26.23;;;13.50;84.30;;;;;;5028214;28;20018;-71
2021/10/26 10:05:42;;;;;;;40.25;24.38;;;13.50;84.30;;;;;;5025409;28;20050;-71
2021/10/26 10:08:23;;;;;;;36.38;22.80;;;13.50;84.80;;;;;;5027518;28;20440;-70
2021/10/26 10:11:09;;;;;;;35.83;22.23;;;13.50;85.00;;;;;;5026899;28;20047;-71
2021/10/26 10:13:42;;;;;;;27.65;18.33;;;13.60;84.40;;;;;;5021643;28;20021;-71
2021/10/26 10:16:13;;;;;;;27.77;17.35;;;13.60;84.40;;;;;;5019610;28;20017;-70
2021/10/26 10:18:42;;;;;;;23.92;16.80;;;13.60;84.20;;;;;;5028813;28;20439;-72
2021/10/26 10:21:10;;;;;;;17.95;14.10;;;13.70;84.30;;;;;;5026325;28;20558;-71
2021/10/26 10:23:40;;;;;;;21.45;14.68;;;13.70;84.50;;;;;;5025763;28;20022;-71
2021/10/26 10:26:06;;;;;;;19.70;14.57;;;13.80;84.00;;;;;;5020188;28;20018;-71
2021/10/26 10:28:33;;;;;;;23.30;14.70;;;13.80;84.70;;;;;;5021847;28;20428;-71
2021/10/26 10:31:02;;;;;;;23.48;14.20;;;13.90;83.80;;;;;;5022880;28;20182;-69
2021/10/26 10:33:29;;;;;;;24.25;14.43;;;13.90;83.30;;;;;;5026195;28;20178;-72
2021/10/26 10:35:57;;;;;;;23.20;13.77;;;14.00;83.00;;;;;;5027585;28;20620;-72
2021/10/26 10:38:27;;;;;;;22.27;13.88;;;14.00;82.90;;;;;;5025702;28;20022;-71
2021/10/26 10:41:42;;;;;;;19.63;14.05;;;14.00;82.50;;;;;;5027077;28;20040;-71
2021/10/26 10:44:20;;;;;;;18.40;14.05;;;13.90;82.70;;;;;;5022735;28;20048;-71
2021/10/26 10:46:49;;;;;;;29.23;14.30;;;13.90;82.70;;;;;;5024301;28;20033;-73
2021/10/26 10:49:23;;;;;;;20.15;13.55;;;13.90;82.80;;;;;;5026465;28;20029;-71
2021/10/26 10:52:15;;;;;;;24.60;14.65;;;13.90;82.90;;;;;;5027839;28;20109;-71
2021/10/26 10:54:53;;;;;;;21.17;14.82;;;13.90;82.90;;;;;;5026423;28;20485;-72
2021/10/26 10:57:37;;;;;;;25.42;14.02;;;13.90;82.90;;;;;;5026213;28;20048;-71
2021/10/26 11:00:24;;;;;;;23.55;14.02;;;13.90;83.10;;;;;;5023749;28;20024;-72
2021/10/26 11:02:52;;;;;;;19.92;13.20;;;14.00;83.50;;;;;;5025728;28;20171;-71
2021/10/26 11:05:33;;;;;;;23.33;14.20;;;14.00;83.80;;;;;;5023786;28;20025;-71
2021/10/26 11:08:04;;;;;;;24.35;15.43;;;14.00;83.70;;;;;;5021810;28;20357;-72
2021/10/26 11:10:48;;;;;;;26.63;15.60;;;14.00;83.30;;;;;;5024403;28;20418;-72
2021/10/26 11:13:24;;;;;;;25.77;15.85;;;14.00;83.30;;;;;;5033071;28;20515;-71
2021/10/26 11:15:52;;;;;;;25.25;14.52;;;13.90;83.30;;;;;;5024946;28;20457;-71
2021/10/26 11:18:33;;;;;;;26.65;15.02;;;13.90;83.80;;;;;;5025635;28;20048;-71
2021/10/26 11:21:04;;;;;;;24.83;15.82;;;14.00;84.50;;;;;;5028509;28;20029;-70
2021/10/26 11:23:33;;;;;;;22.40;15.32;;;14.00;84.20;;;;;;5033919;28;20045;-71
2021/10/26 11:26:30;;;;;;;21.58;14.68;;;14.00;84.30;;;;;;5029247;28;21400;-71
2021/10/26 11:28:58;;;;;;;26.58;16.10;;;13.90;84.60;;;;;;5030613;28;20406;-71
2021/10/26 11:31:26;;;;;;;26.45;17.05;;;13.90;84.80;;;;;;5036583;28;20129;-71
2021/10/26 11:34:06;;;;;;;26.40;16.60;;;13.90;84.60;;;;;;5036297;28;20033;-71
2021/10/26 11:36:33;;;;;;;25.00;15.63;;;13.80;84.90;;;;;;5035227;28;20033;-71
2021/10/26 11:39:03;;;;;;;27.42;16.45;;;13.80;85.50;;;;;;5037105;28;20131;-70
2021/10/26 11:41:33;;;;;;;27.73;16.70;;;13.90;85.60;;;;;;5030202;28;20060;-71
2021/10/26 11:44:05;;;;;;;31.55;18.10;;;13.90;85.50;;;;;;5030716;28;20037;-71
2021/10/26 11:46:31;;;;;;;;;;;14.00;85.60;;;;;;5032795;28;20028;-71
2021/10/26 11:49:17;;;;;;;23.70;15.40;;;14.00;85.20;;;;;;5035454;28;19909;-71
2021/10/26 11:51:56;;;;;;;26.88;17.70;;;14.00;85.90;;;;;;5034408;28;20086;-72
2021/10/26 11:54:25;;;;;;;25.98;17.45;;;14.00;85.60;;;;;;5029187;28;20119;-72
2021/10/26 11:56:54;;;;;;;26.05;17.92;;;14.20;85.70;;;;;;5032144;28;20025;-71
2021/10/26 11:59:23;;;;;;;25.42;15.93;;;14.20;85.60;;;;;;5039193;28;20056;-72
2021/10/26 12:01:52;;;;;;;26.80;16.42;;;14.30;85.10;;;;;;5031780;28;20029;-71
2021/10/26 12:04:31;;;;;;;26.73;16.58;;;14.30;84.80;;;;;;5034494;28;20029;-72
2021/10/26 12:07:00;;;;;;;23.40;14.93;;;14.40;84.80;;;;;;5027534;28;20030;-71
2021/10/26 12:09:32;;;;;;;23.35;14.50;;;14.50;84.50;;;;;;5033172;28;20419;-72
2021/10/26 12:12:03;;;;;;;23.77;15.03;;;14.50;84.50;;;;;;5035595;28;20029;-72
2021/10/26 12:14:33;;;;;;;20.98;13.63;;;14.50;84.40;;;;;;5053639;28;20028;-73
2021/10/26 12:17:20;;;;;;;21.15;13.93;;;14.50;83.90;;;;;;5029780;28;20033;-73
2021/10/26 12:19:54;;;;;;;23.80;14.90;;;14.50;84.00;;;;;;5037335;28;20037;-71
2021/10/26 12:22:43;;;;;;;21.67;13.25;;;14.60;84.00;;;;;;5027221;28;20120;-71
2021/10/26 12:25:27;;;;;;;22.30;13.15;;;14.70;82.80;;;;;;5031956;28;20432;-72
2021/10/26 12:27:56;;;;;;;20.52;12.00;;;14.70;82.50;;;;;;5036493;28;20112;-73
2021/10/26 12:30:26;;;;;;;22.15;11.95;;;14.60;82.50;;;;;;5043463;28;20361;-71
2021/10/26 12:32:59;;;;;;;18.88;11.88;;;14.60;82.50;;;;;;5035445;28;20034;-72
2021/10/26 12:35:31;;;;;;;18.42;10.13;;;14.60;82.40;;;;;;5032787;28;20029;-71
2021/10/26 12:38:21;;;;;;;22.00;10.70;;;14.70;82.50;;;;;;5030180;28;20288;-72
2021/10/26 12:40:50;;;;;;;21.45;10.38;;;14.70;81.90;;;;;;5028103;28;20559;-72
2021/10/26 12:43:22;;;;;;;20.20;11.35;;;14.80;81.70;;;;;;5030715;28;20037;-72
2021/10/26 12:45:50;;;;;;;14.50;9.38;;;14.80;81.40;;;;;;5028809;28;20506;-72
2021/10/26 12:48:16;;;;;;;14.40;9.05;;;14.70;81.40;;;;;;5036676;28;20076;-72
2021/10/26 12:50:55;;;;;;;16.80;8.85;;;14.80;81.90;;;;;;5034035;28;20027;-72
2021/10/26 12:53:42;;;;;;;14.32;9.40;;;14.80;81.90;;;;;;5029056;28;20112;-72